sensor_id;sensor_type;location;lat;lon;timestamp;temperature;humidity
23251;DHT22;11794;49.730;10.088;2023-02-27T00:00:21;-2.90;99.90
23251;DHT22;11794;49.730;10.088;2023-02-27T00:02:49;-2.90;99.90
23251;DHT22;11794;49.730;10.088;2023-02-27T00:05:15;-2.90;99.90
23251;DHT22;11794;49.730;10.088;2023-02-27T00:07:41;-3.00;99.90
23251;DHT22;11794;49.730;10.088;2023-02-27T00:10:08;-3.00;99.90
23251;DHT22;11794;49.730;10.088;2023-02-27T00:12:34;-3.00;99.90
23251;DHT22;11794;49.730;10.088;2023-02-27T00:15:14;-3.00;99.90
23251;DHT22;11794;49.730;10.088;2023-02-27T00:17:40;-3.10;99.90
23251;DHT22;11794;49.730;10.088;2023-02-27T00:20:08;-3.10;99.90
23251;DHT22;11794;49.730;10.088;2023-02-27T00:22:40;-3.10;99.90
23251;DHT22;11794;49.730;10.088;2023-02-27T00:25:06;-3.10;99.90
23251;DHT22;11794;49.730;10.088;2023-02-27T00:27:32;-3.10;99.90
23251;DHT22;11794;49.730;10.088;2023-02-27T00:29:59;-3.10;99.90
23251;DHT22;11794;49.730;10.088;2023-02-27T00:32:24;-3.20;99.90
23251;DHT22;11794;49.730;10.088;2023-02-27T00:34:50;-3.20;99.90
23251;DHT22;11794;49.730;10.088;2023-02-27T00:37:16;-3.20;99.90
23251;DHT22;11794;49.730;10.088;2023-02-27T00:39:41;-3.20;99.90
23251;DHT22;11794;49.730;10.088;2023-02-27T00:42:07;-3.20;99.90
23251;DHT22;11794;49.730;10.088;2023-02-27T00:44:32;-3.20;99.90
23251;DHT22;11794;49.730;10.088;2023-02-27T00:46:58;-3.20;99.90
23251;DHT22;11794;49.730;10.088;2023-02-27T00:49:24;-3.20;99.90
23251;DHT22;11794;49.730;10.088;2023-02-27T00:51:50;-3.30;99.90
23251;DHT22;11794;49.730;10.088;2023-02-27T00:54:15;-3.20;99.90
23251;DHT22;11794;49.730;10.088;2023-02-27T00:56:41;-3.20;99.90
23251;DHT22;11794;49.730;10.088;2023-02-27T00:59:07;-3.20;99.90
23251;DHT22;11794;49.730;10.088;2023-02-27T01:01:33;-3.20;99.90
23251;DHT22;11794;49.730;10.088;2023-02-27T01:03:59;-3.20;99.90
23251;DHT22;11794;49.730;10.088;2023-02-27T01:06:24;-3.20;99.90
23251;DHT22;11794;49.730;10.088;2023-02-27T01:08:50;-3.20;99.90
23251;DHT22;11794;49.730;10.088;2023-02-27T01:11:15;-3.20;99.90
23251;DHT22;11794;49.730;10.088;2023-02-27T01:13:42;-3.20;99.90
23251;DHT22;11794;49.730;10.088;2023-02-27T01:16:11;-3.20;99.90
23251;DHT22;11794;49.730;10.088;2023-02-27T01:18:36;-3.10;99.90
23251;DHT22;11794;49.730;10.088;2023-02-27T01:21:02;-3.10;99.90
23251;DHT22;11794;49.730;10.088;2023-02-27T01:23:27;-3.10;99.90
23251;DHT22;11794;49.730;10.088;2023-02-27T01:25:53;-3.10;99.90
23251;DHT22;11794;49.730;10.088;2023-02-27T01:28:18;-3.10;99.90
23251;DHT22;11794;49.730;10.088;2023-02-27T01:30:44;-3.10;99.90
23251;DHT22;11794;49.730;10.088;2023-02-27T01:33:09;-3.10;99.90
23251;DHT22;11794;49.730;10.088;2023-02-27T01:35:35;-3.10;99.90
23251;DHT22;11794;49.730;10.088;2023-02-27T01:38:01;-3.10;99.90
23251;DHT22;11794;49.730;10.088;2023-02-27T01:40:26;-3.10;99.90
23251;DHT22;11794;49.730;10.088;2023-02-27T01:42:52;-3.10;99.90
23251;DHT22;11794;49.730;10.088;2023-02-27T01:45:32;-3.10;99.90
23251;DHT22;11794;49.730;10.088;2023-02-27T01:51:00;-3.10;99.90
23251;DHT22;11794;49.730;10.088;2023-02-27T01:53:27;-3.10;99.90
23251;DHT22;11794;49.730;10.088;2023-02-27T01:55:59;-3.10;99.90
23251;DHT22;11794;49.730;10.088;2023-02-27T01:58:26;-3.10;99.90
23251;DHT22;11794;49.730;10.088;2023-02-27T02:00:52;-3.10;99.90
23251;DHT22;11794;49.730;10.088;2023-02-27T02:03:32;-3.10;99.90
23251;DHT22;11794;49.730;10.088;2023-02-27T02:06:02;-3.10;99.90
23251;DHT22;11794;49.730;10.088;2023-02-27T02:08:31;-3.10;99.90
23251;DHT22;11794;49.730;10.088;2023-02-27T02:10:58;-3.10;99.90
23251;DHT22;11794;49.730;10.088;2023-02-27T02:13:24;-3.10;99.90
23251;DHT22;11794;49.730;10.088;2023-02-27T02:15:59;-3.10;99.90
23251;DHT22;11794;49.730;10.088;2023-02-27T02:22:05;-3.10;99.90
23251;DHT22;11794;49.730;10.088;2023-02-27T02:27:48;-3.10;99.90
23251;DHT22;11794;49.730;10.088;2023-02-27T02:33:34;-3.00;99.90
23251;DHT22;11794;49.730;10.088;2023-02-27T02:36:32;-3.00;99.90
23251;DHT22;11794;49.730;10.088;2023-02-27T02:42:21;-3.00;99.90
23251;DHT22;11794;49.730;10.088;2023-02-27T02:45:21;-3.00;99.90
23251;DHT22;11794;49.730;10.088;2023-02-27T02:50:41;-3.10;99.90
23251;DHT22;11794;49.730;10.088;2023-02-27T02:53:59;-3.10;99.90
23251;DHT22;11794;49.730;10.088;2023-02-27T02:56:31;-3.10;99.90
23251;DHT22;11794;49.730;10.088;2023-02-27T02:59:01;-3.10;99.90
23251;DHT22;11794;49.730;10.088;2023-02-27T03:01:58;-3.10;99.90
23251;DHT22;11794;49.730;10.088;2023-02-27T03:04:42;-3.10;99.90
23251;DHT22;11794;49.730;10.088;2023-02-27T03:07:15;-3.10;99.90
23251;DHT22;11794;49.730;10.088;2023-02-27T03:09:47;-3.10;99.90
23251;DHT22;11794;49.730;10.088;2023-02-27T03:12:18;-3.20;99.90
23251;DHT22;11794;49.730;10.088;2023-02-27T03:14:57;-3.20;99.90
23251;DHT22;11794;49.730;10.088;2023-02-27T03:17:39;-3.20;99.90
23251;DHT22;11794;49.730;10.088;2023-02-27T03:20:10;-3.30;99.90
23251;DHT22;11794;49.730;10.088;2023-02-27T03:22:39;-3.30;99.90
23251;DHT22;11794;49.730;10.088;2023-02-27T03:25:09;-3.40;99.90
23251;DHT22;11794;49.730;10.088;2023-02-27T03:27:42;-3.40;99.90
23251;DHT22;11794;49.730;10.088;2023-02-27T03:30:15;-3.40;99.90
23251;DHT22;11794;49.730;10.088;2023-02-27T03:33:04;-3.50;99.90
23251;DHT22;11794;49.730;10.088;2023-02-27T03:35:46;-3.50;99.90
23251;DHT22;11794;49.730;10.088;2023-02-27T03:38:25;-3.50;99.90
23251;DHT22;11794;49.730;10.088;2023-02-27T03:43:49;-3.50;99.90
23251;DHT22;11794;49.730;10.088;2023-02-27T03:46:24;-3.50;99.90
23251;DHT22;11794;49.730;10.088;2023-02-27T03:48:50;-3.60;99.90
23251;DHT22;11794;49.730;10.088;2023-02-27T03:51:18;-3.60;99.90
23251;DHT22;11794;49.730;10.088;2023-02-27T03:53:54;-3.50;99.90
23251;DHT22;11794;49.730;10.088;2023-02-27T03:56:27;-3.60;99.90
23251;DHT22;11794;49.730;10.088;2023-02-27T03:58:53;-3.50;99.90
23251;DHT22;11794;49.730;10.088;2023-02-27T04:01:19;-3.50;99.90
23251;DHT22;11794;49.730;10.088;2023-02-27T04:03:52;-3.50;99.90
23251;DHT22;11794;49.730;10.088;2023-02-27T04:06:19;-3.50;99.90
23251;DHT22;11794;49.730;10.088;2023-02-27T04:09:15;-3.50;99.90
23251;DHT22;11794;49.730;10.088;2023-02-27T04:11:50;-3.50;99.90
23251;DHT22;11794;49.730;10.088;2023-02-27T04:17:23;-3.50;99.90
23251;DHT22;11794;49.730;10.088;2023-02-27T04:23:07;-3.50;99.90
23251;DHT22;11794;49.730;10.088;2023-02-27T04:25:50;-3.50;99.90
23251;DHT22;11794;49.730;10.088;2023-02-27T04:28:24;-3.50;99.90
23251;DHT22;11794;49.730;10.088;2023-02-27T04:33:41;-3.50;99.90
23251;DHT22;11794;49.730;10.088;2023-02-27T04:41:24;-3.70;99.90
23251;DHT22;11794;49.730;10.088;2023-02-27T04:43:52;-3.80;99.90
23251;DHT22;11794;49.730;10.088;2023-02-27T04:46:22;-3.80;99.90
23251;DHT22;11794;49.730;10.088;2023-02-27T04:49:07;-3.80;99.90
23251;DHT22;11794;49.730;10.088;2023-02-27T04:51:46;-3.90;99.90
23251;DHT22;11794;49.730;10.088;2023-02-27T04:54:16;-3.90;99.90
23251;DHT22;11794;49.730;10.088;2023-02-27T04:56:54;-3.90;99.90
23251;DHT22;11794;49.730;10.088;2023-02-27T04:59:28;-3.90;99.90
23251;DHT22;11794;49.730;10.088;2023-02-27T05:02:04;-3.90;99.90
23251;DHT22;11794;49.730;10.088;2023-02-27T05:04:34;-3.90;99.90
23251;DHT22;11794;49.730;10.088;2023-02-27T05:07:02;-3.90;99.90
23251;DHT22;11794;49.730;10.088;2023-02-27T05:12:20;-3.90;99.90
23251;DHT22;11794;49.730;10.088;2023-02-27T05:15:04;-3.90;99.90
23251;DHT22;11794;49.730;10.088;2023-02-27T05:17:39;-3.90;99.90
23251;DHT22;11794;49.730;10.088;2023-02-27T05:20:05;-4.00;99.90
23251;DHT22;11794;49.730;10.088;2023-02-27T05:25:34;-4.00;99.90
23251;DHT22;11794;49.730;10.088;2023-02-27T05:28:24;-3.90;99.90
23251;DHT22;11794;49.730;10.088;2023-02-27T05:31:20;-3.90;99.90
23251;DHT22;11794;49.730;10.088;2023-02-27T05:34:11;-3.90;99.90
23251;DHT22;11794;49.730;10.088;2023-02-27T05:36:46;-3.90;99.90
23251;DHT22;11794;49.730;10.088;2023-02-27T05:39:18;-4.00;99.90
23251;DHT22;11794;49.730;10.088;2023-02-27T05:41:49;-4.00;99.90
23251;DHT22;11794;49.730;10.088;2023-02-27T05:44:29;-4.00;99.90
23251;DHT22;11794;49.730;10.088;2023-02-27T05:47:18;-4.00;99.90
23251;DHT22;11794;49.730;10.088;2023-02-27T05:49:56;-4.10;99.90
23251;DHT22;11794;49.730;10.088;2023-02-27T05:52:25;-4.10;99.90
23251;DHT22;11794;49.730;10.088;2023-02-27T05:55:28;-4.10;99.90
23251;DHT22;11794;49.730;10.088;2023-02-27T05:57:58;-4.20;99.90
23251;DHT22;11794;49.730;10.088;2023-02-27T06:00:37;-4.20;99.90
23251;DHT22;11794;49.730;10.088;2023-02-27T06:03:05;-4.20;99.90
23251;DHT22;11794;49.730;10.088;2023-02-27T06:05:30;-4.20;99.90
23251;DHT22;11794;49.730;10.088;2023-02-27T06:07:56;-4.20;99.90
23251;DHT22;11794;49.730;10.088;2023-02-27T06:10:22;-4.20;99.90
23251;DHT22;11794;49.730;10.088;2023-02-27T06:12:48;-4.20;99.90
23251;DHT22;11794;49.730;10.088;2023-02-27T06:15:14;-4.10;99.90
23251;DHT22;11794;49.730;10.088;2023-02-27T06:17:39;-4.10;99.90
23251;DHT22;11794;49.730;10.088;2023-02-27T06:20:06;-4.10;99.90
23251;DHT22;11794;49.730;10.088;2023-02-27T06:22:32;-4.10;99.90
23251;DHT22;11794;49.730;10.088;2023-02-27T06:24:58;-4.10;99.90
23251;DHT22;11794;49.730;10.088;2023-02-27T06:27:24;-4.00;99.90
23251;DHT22;11794;49.730;10.088;2023-02-27T06:29:51;-4.00;99.90
23251;DHT22;11794;49.730;10.088;2023-02-27T06:32:17;-3.90;99.90
23251;DHT22;11794;49.730;10.088;2023-02-27T06:34:42;-3.90;99.90
23251;DHT22;11794;49.730;10.088;2023-02-27T06:37:08;-3.70;99.90
23251;DHT22;11794;49.730;10.088;2023-02-27T06:39:33;-3.40;99.90
23251;DHT22;11794;49.730;10.088;2023-02-27T06:41:59;-3.30;99.90
23251;DHT22;11794;49.730;10.088;2023-02-27T06:44:24;-3.20;99.90
23251;DHT22;11794;49.730;10.088;2023-02-27T06:46:50;-3.00;99.90
23251;DHT22;11794;49.730;10.088;2023-02-27T06:49:15;-2.80;99.90
23251;DHT22;11794;49.730;10.088;2023-02-27T06:51:41;-2.40;99.90
23251;DHT22;11794;49.730;10.088;2023-02-27T06:54:07;-2.00;99.90
23251;DHT22;11794;49.730;10.088;2023-02-27T06:56:32;-1.70;99.90
23251;DHT22;11794;49.730;10.088;2023-02-27T06:58:58;-1.50;99.90
23251;DHT22;11794;49.730;10.088;2023-02-27T07:01:23;-1.40;99.90
23251;DHT22;11794;49.730;10.088;2023-02-27T07:03:50;-1.40;99.90
23251;DHT22;11794;49.730;10.088;2023-02-27T07:06:16;-1.50;99.90
23251;DHT22;11794;49.730;10.088;2023-02-27T07:08:41;-1.40;99.90
23251;DHT22;11794;49.730;10.088;2023-02-27T07:11:07;-1.30;99.90
23251;DHT22;11794;49.730;10.088;2023-02-27T07:13:32;-1.30;99.90
23251;DHT22;11794;49.730;10.088;2023-02-27T07:15:58;-1.10;99.90
23251;DHT22;11794;49.730;10.088;2023-02-27T07:18:23;-0.90;99.90
23251;DHT22;11794;49.730;10.088;2023-02-27T07:20:50;-1.00;99.90
23251;DHT22;11794;49.730;10.088;2023-02-27T07:23:16;-1.00;99.90
23251;DHT22;11794;49.730;10.088;2023-02-27T07:25:42;-1.00;99.90
23251;DHT22;11794;49.730;10.088;2023-02-27T07:28:07;-1.10;99.90
23251;DHT22;11794;49.730;10.088;2023-02-27T07:30:33;-1.00;99.90
23251;DHT22;11794;49.730;10.088;2023-02-27T07:32:58;-0.90;99.90
23251;DHT22;11794;49.730;10.088;2023-02-27T07:35:24;-0.80;99.90
23251;DHT22;11794;49.730;10.088;2023-02-27T07:37:50;-0.60;99.90
23251;DHT22;11794;49.730;10.088;2023-02-27T07:40:15;-0.10;99.90
23251;DHT22;11794;49.730;10.088;2023-02-27T07:42:41;0.40;99.90
23251;DHT22;11794;49.730;10.088;2023-02-27T07:45:07;0.60;99.90
23251;DHT22;11794;49.730;10.088;2023-02-27T07:47:34;0.80;99.90
23251;DHT22;11794;49.730;10.088;2023-02-27T07:49:59;1.10;99.90
23251;DHT22;11794;49.730;10.088;2023-02-27T07:52:25;1.00;99.90
23251;DHT22;11794;49.730;10.088;2023-02-27T07:54:50;0.90;99.90
23251;DHT22;11794;49.730;10.088;2023-02-27T07:57:16;0.90;99.90
23251;DHT22;11794;49.730;10.088;2023-02-27T07:59:42;0.90;99.90
23251;DHT22;11794;49.730;10.088;2023-02-27T08:02:09;1.20;99.90
23251;DHT22;11794;49.730;10.088;2023-02-27T08:04:36;1.30;99.90
23251;DHT22;11794;49.730;10.088;2023-02-27T08:07:01;1.80;99.90
23251;DHT22;11794;49.730;10.088;2023-02-27T08:09:27;2.30;99.90
23251;DHT22;11794;49.730;10.088;2023-02-27T08:11:55;2.40;99.90
23251;DHT22;11794;49.730;10.088;2023-02-27T08:14:20;2.70;99.90
23251;DHT22;11794;49.730;10.088;2023-02-27T08:16:46;2.90;99.90
23251;DHT22;11794;49.730;10.088;2023-02-27T08:19:13;2.90;99.90
23251;DHT22;11794;49.730;10.088;2023-02-27T08:21:39;2.90;99.90
23251;DHT22;11794;49.730;10.088;2023-02-27T08:24:04;3.00;99.90
23251;DHT22;11794;49.730;10.088;2023-02-27T08:26:30;3.10;99.90
23251;DHT22;11794;49.730;10.088;2023-02-27T08:28:55;3.30;99.90
23251;DHT22;11794;49.730;10.088;2023-02-27T08:31:21;3.70;99.90
23251;DHT22;11794;49.730;10.088;2023-02-27T08:33:47;3.80;99.90
23251;DHT22;11794;49.730;10.088;2023-02-27T08:36:13;3.60;99.90
23251;DHT22;11794;49.730;10.088;2023-02-27T08:38:40;3.90;99.90
23251;DHT22;11794;49.730;10.088;2023-02-27T08:41:05;4.00;99.90
23251;DHT22;11794;49.730;10.088;2023-02-27T08:43:31;4.00;99.90
23251;DHT22;11794;49.730;10.088;2023-02-27T08:45:57;4.40;99.90
23251;DHT22;11794;49.730;10.088;2023-02-27T08:48:22;4.50;99.90
23251;DHT22;11794;49.730;10.088;2023-02-27T08:50:49;4.30;99.90
23251;DHT22;11794;49.730;10.088;2023-02-27T08:53:15;4.10;99.90
23251;DHT22;11794;49.730;10.088;2023-02-27T08:55:41;3.80;99.90
23251;DHT22;11794;49.730;10.088;2023-02-27T08:58:08;3.90;99.90
23251;DHT22;11794;49.730;10.088;2023-02-27T09:00:33;3.80;99.90
23251;DHT22;11794;49.730;10.088;2023-02-27T09:02:59;4.00;99.90
23251;DHT22;11794;49.730;10.088;2023-02-27T09:05:26;4.30;99.90
23251;DHT22;11794;49.730;10.088;2023-02-27T09:07:51;4.70;99.90
23251;DHT22;11794;49.730;10.088;2023-02-27T09:10:17;4.90;99.90
23251;DHT22;11794;49.730;10.088;2023-02-27T09:12:42;4.50;99.90
23251;DHT22;11794;49.730;10.088;2023-02-27T09:15:09;4.50;99.90
23251;DHT22;11794;49.730;10.088;2023-02-27T09:17:35;4.70;99.90
23251;DHT22;11794;49.730;10.088;2023-02-27T09:20:01;4.90;99.90
23251;DHT22;11794;49.730;10.088;2023-02-27T09:22:28;4.70;99.90
23251;DHT22;11794;49.730;10.088;2023-02-27T09:24:54;5.30;99.90
23251;DHT22;11794;49.730;10.088;2023-02-27T09:27:20;5.10;99.90
23251;DHT22;11794;49.730;10.088;2023-02-27T09:29:48;5.10;99.90
23251;DHT22;11794;49.730;10.088;2023-02-27T09:32:20;5.40;99.90
23251;DHT22;11794;49.730;10.088;2023-02-27T09:34:46;5.20;99.90
23251;DHT22;11794;49.730;10.088;2023-02-27T09:37:11;5.30;99.90
23251;DHT22;11794;49.730;10.088;2023-02-27T09:39:37;5.80;99.90
23251;DHT22;11794;49.730;10.088;2023-02-27T09:42:04;5.80;99.90
23251;DHT22;11794;49.730;10.088;2023-02-27T09:44:43;6.00;99.90
23251;DHT22;11794;49.730;10.088;2023-02-27T09:47:34;6.30;99.90
23251;DHT22;11794;49.730;10.088;2023-02-27T09:50:24;6.20;99.90
23251;DHT22;11794;49.730;10.088;2023-02-27T09:52:51;6.30;99.90
23251;DHT22;11794;49.730;10.088;2023-02-27T09:55:19;6.60;99.90
23251;DHT22;11794;49.730;10.088;2023-02-27T09:58:00;6.50;99.70
23251;DHT22;11794;49.730;10.088;2023-02-27T10:06:32;5.80;99.90
23251;DHT22;11794;49.730;10.088;2023-02-27T10:09:15;6.20;99.90
23251;DHT22;11794;49.730;10.088;2023-02-27T10:11:48;6.70;99.90
23251;DHT22;11794;49.730;10.088;2023-02-27T10:16:58;7.10;99.50
23251;DHT22;11794;49.730;10.088;2023-02-27T10:19:33;7.10;99.30
23251;DHT22;11794;49.730;10.088;2023-02-27T10:22:04;6.60;98.50
23251;DHT22;11794;49.730;10.088;2023-02-27T10:24:36;6.90;99.90
23251;DHT22;11794;49.730;10.088;2023-02-27T10:27:04;7.30;99.90
23251;DHT22;11794;49.730;10.088;2023-02-27T10:29:36;8.00;98.80
23251;DHT22;11794;49.730;10.088;2023-02-27T10:32:27;8.50;97.40
23251;DHT22;11794;49.730;10.088;2023-02-27T10:35:07;8.80;97.90
23251;DHT22;11794;49.730;10.088;2023-02-27T10:37:35;8.30;97.70
23251;DHT22;11794;49.730;10.088;2023-02-27T10:40:04;8.30;98.00
23251;DHT22;11794;49.730;10.088;2023-02-27T10:42:35;8.40;97.10
23251;DHT22;11794;49.730;10.088;2023-02-27T10:45:06;8.10;96.50
23251;DHT22;11794;49.730;10.088;2023-02-27T10:47:36;7.70;96.10
23251;DHT22;11794;49.730;10.088;2023-02-27T10:52:52;8.70;94.90
23251;DHT22;11794;49.730;10.088;2023-02-27T10:55:24;9.20;95.10
23251;DHT22;11794;49.730;10.088;2023-02-27T10:57:50;9.70;93.30
23251;DHT22;11794;49.730;10.088;2023-02-27T11:00:37;8.90;93.30
23251;DHT22;11794;49.730;10.088;2023-02-27T11:03:04;8.40;94.50
23251;DHT22;11794;49.730;10.088;2023-02-27T11:05:32;8.60;94.60
23251;DHT22;11794;49.730;10.088;2023-02-27T11:08:21;9.30;93.50
23251;DHT22;11794;49.730;10.088;2023-02-27T11:10:57;9.20;93.60
23251;DHT22;11794;49.730;10.088;2023-02-27T11:13:24;8.90;92.90
23251;DHT22;11794;49.730;10.088;2023-02-27T11:16:11;8.50;93.50
23251;DHT22;11794;49.730;10.088;2023-02-27T11:18:39;9.50;93.10
23251;DHT22;11794;49.730;10.088;2023-02-27T11:23:36;10.00;91.20
23251;DHT22;11794;49.730;10.088;2023-02-27T11:26:12;10.00;91.70
23251;DHT22;11794;49.730;10.088;2023-02-27T11:28:39;10.30;91.60
23251;DHT22;11794;49.730;10.088;2023-02-27T11:31:20;10.80;92.60
23251;DHT22;11794;49.730;10.088;2023-02-27T11:33:52;11.50;90.80
23251;DHT22;11794;49.730;10.088;2023-02-27T11:36:18;12.20;90.40
23251;DHT22;11794;49.730;10.088;2023-02-27T11:38:54;13.00;90.00
23251;DHT22;11794;49.730;10.088;2023-02-27T11:41:29;13.00;86.60
23251;DHT22;11794;49.730;10.088;2023-02-27T11:43:58;12.70;84.90
23251;DHT22;11794;49.730;10.088;2023-02-27T11:46:24;12.50;87.00
23251;DHT22;11794;49.730;10.088;2023-02-27T11:54:59;10.10;93.30
23251;DHT22;11794;49.730;10.088;2023-02-27T11:57:34;10.00;93.40
23251;DHT22;11794;49.730;10.088;2023-02-27T12:00:29;9.90;91.70
23251;DHT22;11794;49.730;10.088;2023-02-27T12:03:20;9.40;92.80
23251;DHT22;11794;49.730;10.088;2023-02-27T12:05:49;9.10;93.60
23251;DHT22;11794;49.730;10.088;2023-02-27T12:08:38;9.10;94.90
23251;DHT22;11794;49.730;10.088;2023-02-27T12:11:34;9.10;94.10
23251;DHT22;11794;49.730;10.088;2023-02-27T12:14:14;9.70;93.50
23251;DHT22;11794;49.730;10.088;2023-02-27T12:17:06;10.40;92.10
23251;DHT22;11794;49.730;10.088;2023-02-27T12:19:39;9.40;91.40
23251;DHT22;11794;49.730;10.088;2023-02-27T12:22:17;8.10;90.90
23251;DHT22;11794;49.730;10.088;2023-02-27T12:24:47;7.80;91.50
23251;DHT22;11794;49.730;10.088;2023-02-27T12:27:42;8.70;91.50
23251;DHT22;11794;49.730;10.088;2023-02-27T12:33:00;8.80;89.40
23251;DHT22;11794;49.730;10.088;2023-02-27T12:35:30;9.20;89.30
23251;DHT22;11794;49.730;10.088;2023-02-27T12:38:00;9.30;89.10
23251;DHT22;11794;49.730;10.088;2023-02-27T12:40:35;8.40;90.50
23251;DHT22;11794;49.730;10.088;2023-02-27T12:51:30;10.50;89.10
23251;DHT22;11794;49.730;10.088;2023-02-27T12:57:15;9.50;86.60
23251;DHT22;11794;49.730;10.088;2023-02-27T13:02:47;8.80;89.20
23251;DHT22;11794;49.730;10.088;2023-02-27T13:07:50;10.10;86.50
23251;DHT22;11794;49.730;10.088;2023-02-27T13:13:33;10.10;86.00
23251;DHT22;11794;49.730;10.088;2023-02-27T13:16:06;10.50;83.80
23251;DHT22;11794;49.730;10.088;2023-02-27T13:18:50;8.60;85.70
23251;DHT22;11794;49.730;10.088;2023-02-27T13:21:26;8.30;87.90
23251;DHT22;11794;49.730;10.088;2023-02-27T13:26:52;6.90;90.70
23251;DHT22;11794;49.730;10.088;2023-02-27T13:29:20;6.60;92.90
23251;DHT22;11794;49.730;10.088;2023-02-27T13:31:57;6.50;93.90
23251;DHT22;11794;49.730;10.088;2023-02-27T13:34:34;6.80;94.00
23251;DHT22;11794;49.730;10.088;2023-02-27T13:37:04;8.50;92.00
23251;DHT22;11794;49.730;10.088;2023-02-27T13:39:49;8.70;91.90
23251;DHT22;11794;49.730;10.088;2023-02-27T13:44:53;6.90;91.40
23251;DHT22;11794;49.730;10.088;2023-02-27T13:50:03;6.30;91.90
23251;DHT22;11794;49.730;10.088;2023-02-27T13:52:36;6.20;91.80
23251;DHT22;11794;49.730;10.088;2023-02-27T13:55:06;5.90;92.00
23251;DHT22;11794;49.730;10.088;2023-02-27T13:57:47;5.70;93.00
23251;DHT22;11794;49.730;10.088;2023-02-27T14:02:56;4.80;94.60
23251;DHT22;11794;49.730;10.088;2023-02-27T14:05:40;5.40;94.90
23251;DHT22;11794;49.730;10.088;2023-02-27T14:08:20;5.30;95.10
23251;DHT22;11794;49.730;10.088;2023-02-27T14:10:54;4.80;94.90
23251;DHT22;11794;49.730;10.088;2023-02-27T14:18:56;7.60;93.60
23251;DHT22;11794;49.730;10.088;2023-02-27T14:24:35;8.40;89.50
23251;DHT22;11794;49.730;10.088;2023-02-27T14:27:30;8.50;89.40
23251;DHT22;11794;49.730;10.088;2023-02-27T14:30:00;8.90;90.70
23251;DHT22;11794;49.730;10.088;2023-02-27T14:32:32;8.20;90.70
23251;DHT22;11794;49.730;10.088;2023-02-27T14:34:59;6.80;91.60
23251;DHT22;11794;49.730;10.088;2023-02-27T14:37:25;5.70;93.70
23251;DHT22;11794;49.730;10.088;2023-02-27T14:39:53;4.80;94.40
23251;DHT22;11794;49.730;10.088;2023-02-27T14:42:53;4.20;95.30
23251;DHT22;11794;49.730;10.088;2023-02-27T14:45:18;4.00;96.90
23251;DHT22;11794;49.730;10.088;2023-02-27T14:47:44;3.80;97.20
23251;DHT22;11794;49.730;10.088;2023-02-27T14:52:47;3.60;97.00
23251;DHT22;11794;49.730;10.088;2023-02-27T14:55:32;3.60;97.40
23251;DHT22;11794;49.730;10.088;2023-02-27T15:00:35;3.70;96.50
23251;DHT22;11794;49.730;10.088;2023-02-27T15:03:23;3.70;97.00
23251;DHT22;11794;49.730;10.088;2023-02-27T15:05:51;3.60;97.50
23251;DHT22;11794;49.730;10.088;2023-02-27T15:08:20;3.40;97.70
23251;DHT22;11794;49.730;10.088;2023-02-27T15:10:47;3.30;97.80
23251;DHT22;11794;49.730;10.088;2023-02-27T15:13:27;3.20;97.90
23251;DHT22;11794;49.730;10.088;2023-02-27T15:18:51;3.90;98.10
23251;DHT22;11794;49.730;10.088;2023-02-27T15:21:20;3.90;97.10
23251;DHT22;11794;49.730;10.088;2023-02-27T15:24:00;3.40;97.50
23251;DHT22;11794;49.730;10.088;2023-02-27T15:26:27;3.20;98.30
23251;DHT22;11794;49.730;10.088;2023-02-27T15:28:54;3.10;97.50
23251;DHT22;11794;49.730;10.088;2023-02-27T15:31:21;3.10;97.30
23251;DHT22;11794;49.730;10.088;2023-02-27T15:33:49;3.10;97.60
23251;DHT22;11794;49.730;10.088;2023-02-27T15:36:37;3.40;97.90
23251;DHT22;11794;49.730;10.088;2023-02-27T15:39:18;5.00;96.00
23251;DHT22;11794;49.730;10.088;2023-02-27T15:41:49;5.40;94.30
23251;DHT22;11794;49.730;10.088;2023-02-27T15:44:19;5.70;94.90
23251;DHT22;11794;49.730;10.088;2023-02-27T15:46:46;6.20;93.60
23251;DHT22;11794;49.730;10.088;2023-02-27T15:49:18;6.80;93.10
23251;DHT22;11794;49.730;10.088;2023-02-27T15:52:00;7.20;92.00
23251;DHT22;11794;49.730;10.088;2023-02-27T15:54:31;7.60;91.80
23251;DHT22;11794;49.730;10.088;2023-02-27T15:56:57;7.00;92.00
23251;DHT22;11794;49.730;10.088;2023-02-27T15:59:23;7.10;92.40
23251;DHT22;11794;49.730;10.088;2023-02-27T16:01:50;7.10;92.20
23251;DHT22;11794;49.730;10.088;2023-02-27T16:04:23;6.70;92.70
23251;DHT22;11794;49.730;10.088;2023-02-27T16:06:58;6.80;93.50
23251;DHT22;11794;49.730;10.088;2023-02-27T16:09:35;6.30;93.30
23251;DHT22;11794;49.730;10.088;2023-02-27T16:12:35;5.40;93.90
23251;DHT22;11794;49.730;10.088;2023-02-27T16:15:18;4.50;94.90
23251;DHT22;11794;49.730;10.088;2023-02-27T16:17:53;3.90;96.00
23251;DHT22;11794;49.730;10.088;2023-02-27T16:23:15;3.30;97.60
23251;DHT22;11794;49.730;10.088;2023-02-27T16:25:42;3.10;97.30
23251;DHT22;11794;49.730;10.088;2023-02-27T16:28:23;3.00;97.40
23251;DHT22;11794;49.730;10.088;2023-02-27T16:30:52;2.80;98.10
23251;DHT22;11794;49.730;10.088;2023-02-27T16:33:21;2.70;98.40
23251;DHT22;11794;49.730;10.088;2023-02-27T16:35:48;2.40;99.10
23251;DHT22;11794;49.730;10.088;2023-02-27T16:38:15;2.30;99.90
23251;DHT22;11794;49.730;10.088;2023-02-27T16:40:43;2.20;99.90
23251;DHT22;11794;49.730;10.088;2023-02-27T16:43:08;2.00;99.90
23251;DHT22;11794;49.730;10.088;2023-02-27T16:45:34;1.90;99.90
23251;DHT22;11794;49.730;10.088;2023-02-27T16:48:00;1.90;99.90
23251;DHT22;11794;49.730;10.088;2023-02-27T16:50:30;1.70;99.90
23251;DHT22;11794;49.730;10.088;2023-02-27T16:52:57;1.60;99.90
23251;DHT22;11794;49.730;10.088;2023-02-27T16:55:24;1.60;99.90
23251;DHT22;11794;49.730;10.088;2023-02-27T16:57:49;1.60;99.90
23251;DHT22;11794;49.730;10.088;2023-02-27T17:00:17;1.60;99.90
23251;DHT22;11794;49.730;10.088;2023-02-27T17:02:43;1.60;99.90
23251;DHT22;11794;49.730;10.088;2023-02-27T17:05:10;1.50;99.90
23251;DHT22;11794;49.730;10.088;2023-02-27T17:07:36;1.30;99.90
23251;DHT22;11794;49.730;10.088;2023-02-27T17:10:02;1.30;99.90
23251;DHT22;11794;49.730;10.088;2023-02-27T17:12:28;1.30;99.90
23251;DHT22;11794;49.730;10.088;2023-02-27T17:14:54;1.20;99.90
23251;DHT22;11794;49.730;10.088;2023-02-27T17:17:20;1.10;99.90
23251;DHT22;11794;49.730;10.088;2023-02-27T17:19:46;1.00;99.90
23251;DHT22;11794;49.730;10.088;2023-02-27T17:22:11;0.90;99.90
23251;DHT22;11794;49.730;10.088;2023-02-27T17:24:37;0.90;99.90
23251;DHT22;11794;49.730;10.088;2023-02-27T17:27:03;0.80;99.90
23251;DHT22;11794;49.730;10.088;2023-02-27T17:29:29;0.80;99.90
23251;DHT22;11794;49.730;10.088;2023-02-27T17:31:54;0.80;99.90
23251;DHT22;11794;49.730;10.088;2023-02-27T17:34:21;0.80;99.90
23251;DHT22;11794;49.730;10.088;2023-02-27T17:36:47;0.80;99.90
23251;DHT22;11794;49.730;10.088;2023-02-27T17:39:13;0.80;99.90
23251;DHT22;11794;49.730;10.088;2023-02-27T17:41:40;0.90;99.90